sensor_id;sensor_type;location;lat;lon;timestamp;temperature;humidity
8231;DHT22;4156;50.908;6.974;2023-11-19T00:01:32;10.00;99.90
8231;DHT22;4156;50.908;6.974;2023-11-19T00:03:58;10.00;99.90
8231;DHT22;4156;50.908;6.974;2023-11-19T00:06:24;10.00;99.90
8231;DHT22;4156;50.908;6.974;2023-11-19T00:08:51;10.00;99.90
8231;DHT22;4156;50.908;6.974;2023-11-19T00:11:16;10.10;99.90
8231;DHT22;4156;50.908;6.974;2023-11-19T00:13:42;10.10;99.90
8231;DHT22;4156;50.908;6.974;2023-11-19T00:16:08;10.10;99.90
8231;DHT22;4156;50.908;6.974;2023-11-19T00:18:35;10.10;99.90
8231;DHT22;4156;50.908;6.974;2023-11-19T00:21:01;10.10;99.90
8231;DHT22;4156;50.908;6.974;2023-11-19T00:23:27;10.10;99.90
8231;DHT22;4156;50.908;6.974;2023-11-19T00:25:53;10.20;99.90
8231;DHT22;4156;50.908;6.974;2023-11-19T00:28:19;10.20;99.90
8231;DHT22;4156;50.908;6.974;2023-11-19T00:30:44;10.20;99.90
8231;DHT22;4156;50.908;6.974;2023-11-19T00:33:10;10.20;99.90
8231;DHT22;4156;50.908;6.974;2023-11-19T00:35:35;10.20;99.90
8231;DHT22;4156;50.908;6.974;2023-11-19T00:38:01;10.20;99.90
8231;DHT22;4156;50.908;6.974;2023-11-19T00:40:28;10.20;99.90
8231;DHT22;4156;50.908;6.974;2023-11-19T00:42:54;10.20;99.90
8231;DHT22;4156;50.908;6.974;2023-11-19T00:45:19;10.20;99.90
8231;DHT22;4156;50.908;6.974;2023-11-19T00:47:45;10.20;99.90
8231;DHT22;4156;50.908;6.974;2023-11-19T00:50:11;10.20;99.90
8231;DHT22;4156;50.908;6.974;2023-11-19T00:52:37;10.20;99.90
8231;DHT22;4156;50.908;6.974;2023-11-19T00:55:03;10.30;99.90
8231;DHT22;4156;50.908;6.974;2023-11-19T00:57:30;10.30;99.90
8231;DHT22;4156;50.908;6.974;2023-11-19T00:59:57;10.30;99.90
8231;DHT22;4156;50.908;6.974;2023-11-19T01:02:24;10.30;99.90
8231;DHT22;4156;50.908;6.974;2023-11-19T01:04:49;10.30;99.90
8231;DHT22;4156;50.908;6.974;2023-11-19T01:07:15;10.30;99.90
8231;DHT22;4156;50.908;6.974;2023-11-19T01:09:42;10.40;99.90
8231;DHT22;4156;50.908;6.974;2023-11-19T01:12:08;10.40;99.90
8231;DHT22;4156;50.908;6.974;2023-11-19T01:14:35;10.40;99.90
8231;DHT22;4156;50.908;6.974;2023-11-19T01:17:01;10.40;99.90
8231;DHT22;4156;50.908;6.974;2023-11-19T01:19:27;10.40;99.90
8231;DHT22;4156;50.908;6.974;2023-11-19T01:21:54;10.40;99.90
8231;DHT22;4156;50.908;6.974;2023-11-19T01:24:20;10.40;99.90
8231;DHT22;4156;50.908;6.974;2023-11-19T01:26:45;10.40;99.90
8231;DHT22;4156;50.908;6.974;2023-11-19T01:29:14;10.40;99.90
8231;DHT22;4156;50.908;6.974;2023-11-19T01:31:41;10.40;99.90
8231;DHT22;4156;50.908;6.974;2023-11-19T01:34:07;10.40;99.90
8231;DHT22;4156;50.908;6.974;2023-11-19T01:36:33;10.40;99.90
8231;DHT22;4156;50.908;6.974;2023-11-19T01:38:59;10.40;99.90
8231;DHT22;4156;50.908;6.974;2023-11-19T01:41:24;10.40;99.90
8231;DHT22;4156;50.908;6.974;2023-11-19T01:43:50;10.40;99.90
8231;DHT22;4156;50.908;6.974;2023-11-19T01:46:16;10.40;99.90
8231;DHT22;4156;50.908;6.974;2023-11-19T01:48:45;10.40;99.90
8231;DHT22;4156;50.908;6.974;2023-11-19T01:51:15;10.40;99.90
8231;DHT22;4156;50.908;6.974;2023-11-19T01:53:42;10.50;99.90
8231;DHT22;4156;50.908;6.974;2023-11-19T01:56:09;10.50;99.90
8231;DHT22;4156;50.908;6.974;2023-11-19T01:58:37;10.50;99.90
8231;DHT22;4156;50.908;6.974;2023-11-19T02:01:05;10.50;99.90
8231;DHT22;4156;50.908;6.974;2023-11-19T02:03:31;10.50;99.90
8231;DHT22;4156;50.908;6.974;2023-11-19T02:05:59;10.70;99.90
8231;DHT22;4156;50.908;6.974;2023-11-19T02:08:25;10.60;99.90
8231;DHT22;4156;50.908;6.974;2023-11-19T02:10:51;10.60;99.90
8231;DHT22;4156;50.908;6.974;2023-11-19T02:13:20;10.60;99.90
8231;DHT22;4156;50.908;6.974;2023-11-19T02:15:45;10.60;99.90
8231;DHT22;4156;50.908;6.974;2023-11-19T02:20:48;10.70;99.90
8231;DHT22;4156;50.908;6.974;2023-11-19T02:23:14;10.70;99.90
8231;DHT22;4156;50.908;6.974;2023-11-19T02:25:40;10.70;99.90
8231;DHT22;4156;50.908;6.974;2023-11-19T02:28:07;10.70;99.90
8231;DHT22;4156;50.908;6.974;2023-11-19T02:30:33;10.70;99.90
8231;DHT22;4156;50.908;6.974;2023-11-19T02:32:59;10.70;99.90
8231;DHT22;4156;50.908;6.974;2023-11-19T02:35:27;10.80;99.90
8231;DHT22;4156;50.908;6.974;2023-11-19T02:37:54;10.80;99.90
8231;DHT22;4156;50.908;6.974;2023-11-19T02:40:22;10.80;99.90
8231;DHT22;4156;50.908;6.974;2023-11-19T02:42:50;10.80;99.90
8231;DHT22;4156;50.908;6.974;2023-11-19T02:45:15;10.80;99.90
8231;DHT22;4156;50.908;6.974;2023-11-19T02:47:41;10.80;99.90
8231;DHT22;4156;50.908;6.974;2023-11-19T02:50:11;10.80;99.90
8231;DHT22;4156;50.908;6.974;2023-11-19T02:52:43;10.90;99.90
8231;DHT22;4156;50.908;6.974;2023-11-19T02:55:10;10.90;99.90
8231;DHT22;4156;50.908;6.974;2023-11-19T02:57:41;10.90;99.90
8231;DHT22;4156;50.908;6.974;2023-11-19T03:00:18;10.90;99.90
8231;DHT22;4156;50.908;6.974;2023-11-19T03:02:44;10.90;99.90
8231;DHT22;4156;50.908;6.974;2023-11-19T03:05:19;10.90;99.90
8231;DHT22;4156;50.908;6.974;2023-11-19T03:07:45;11.00;99.90
8231;DHT22;4156;50.908;6.974;2023-11-19T03:10:11;11.00;99.90
8231;DHT22;4156;50.908;6.974;2023-11-19T03:12:43;11.00;99.90
8231;DHT22;4156;50.908;6.974;2023-11-19T03:15:10;11.00;99.90
8231;DHT22;4156;50.908;6.974;2023-11-19T03:17:38;11.00;99.90
8231;DHT22;4156;50.908;6.974;2023-11-19T03:20:06;11.00;99.90
8231;DHT22;4156;50.908;6.974;2023-11-19T03:22:32;11.00;99.90
8231;DHT22;4156;50.908;6.974;2023-11-19T03:25:01;11.10;99.90
8231;DHT22;4156;50.908;6.974;2023-11-19T03:27:26;11.10;99.90
8231;DHT22;4156;50.908;6.974;2023-11-19T03:29:52;11.10;99.90
8231;DHT22;4156;50.908;6.974;2023-11-19T03:32:17;11.10;99.90
8231;DHT22;4156;50.908;6.974;2023-11-19T03:34:43;11.10;99.90
8231;DHT22;4156;50.908;6.974;2023-11-19T03:37:08;11.10;99.90
8231;DHT22;4156;50.908;6.974;2023-11-19T03:39:34;11.00;99.90
8231;DHT22;4156;50.908;6.974;2023-11-19T03:41:59;11.10;99.90
8231;DHT22;4156;50.908;6.974;2023-11-19T03:44:26;11.10;99.90
8231;DHT22;4156;50.908;6.974;2023-11-19T03:46:52;11.10;99.90
8231;DHT22;4156;50.908;6.974;2023-11-19T03:49:18;11.10;99.90
8231;DHT22;4156;50.908;6.974;2023-11-19T03:51:43;11.10;99.90
8231;DHT22;4156;50.908;6.974;2023-11-19T03:54:09;11.20;99.90
8231;DHT22;4156;50.908;6.974;2023-11-19T03:56:34;11.20;99.90
8231;DHT22;4156;50.908;6.974;2023-11-19T03:59:00;11.20;99.90
8231;DHT22;4156;50.908;6.974;2023-11-19T04:01:26;11.20;99.90
8231;DHT22;4156;50.908;6.974;2023-11-19T04:03:51;11.20;99.90
8231;DHT22;4156;50.908;6.974;2023-11-19T04:06:17;11.20;99.90
8231;DHT22;4156;50.908;6.974;2023-11-19T04:08:43;11.20;99.90
8231;DHT22;4156;50.908;6.974;2023-11-19T04:11:08;11.20;99.90
8231;DHT22;4156;50.908;6.974;2023-11-19T04:13:34;11.20;99.90
8231;DHT22;4156;50.908;6.974;2023-11-19T04:16:00;11.30;99.90
8231;DHT22;4156;50.908;6.974;2023-11-19T04:18:26;11.20;99.90
8231;DHT22;4156;50.908;6.974;2023-11-19T04:20:52;11.30;99.90
8231;DHT22;4156;50.908;6.974;2023-11-19T04:23:18;11.30;99.90
8231;DHT22;4156;50.908;6.974;2023-11-19T04:25:43;11.30;99.90
8231;DHT22;4156;50.908;6.974;2023-11-19T04:28:09;11.30;99.90
8231;DHT22;4156;50.908;6.974;2023-11-19T04:30:34;11.30;99.90
8231;DHT22;4156;50.908;6.974;2023-11-19T04:33:00;11.40;99.90
8231;DHT22;4156;50.908;6.974;2023-11-19T04:35:26;11.40;99.90
8231;DHT22;4156;50.908;6.974;2023-11-19T04:37:52;11.40;99.90
8231;DHT22;4156;50.908;6.974;2023-11-19T04:40:17;11.40;99.90
8231;DHT22;4156;50.908;6.974;2023-11-19T04:42:48;11.40;99.90
8231;DHT22;4156;50.908;6.974;2023-11-19T04:45:13;11.40;99.90
8231;DHT22;4156;50.908;6.974;2023-11-19T04:47:39;11.40;99.90
8231;DHT22;4156;50.908;6.974;2023-11-19T04:50:05;11.40;99.90
8231;DHT22;4156;50.908;6.974;2023-11-19T04:52:30;11.40;99.90
8231;DHT22;4156;50.908;6.974;2023-11-19T04:54:56;11.40;99.90
8231;DHT22;4156;50.908;6.974;2023-11-19T04:57:21;11.40;99.90
8231;DHT22;4156;50.908;6.974;2023-11-19T04:59:47;11.50;99.90
8231;DHT22;4156;50.908;6.974;2023-11-19T05:02:12;11.50;99.90
8231;DHT22;4156;50.908;6.974;2023-11-19T05:04:42;11.50;99.90
8231;DHT22;4156;50.908;6.974;2023-11-19T05:07:09;11.50;99.90
8231;DHT22;4156;50.908;6.974;2023-11-19T05:09:35;11.50;99.90
8231;DHT22;4156;50.908;6.974;2023-11-19T05:12:00;11.50;99.90
8231;DHT22;4156;50.908;6.974;2023-11-19T05:14:27;11.50;99.90
8231;DHT22;4156;50.908;6.974;2023-11-19T05:16:53;11.50;99.90
8231;DHT22;4156;50.908;6.974;2023-11-19T05:19:18;11.50;99.90
8231;DHT22;4156;50.908;6.974;2023-11-19T05:21:44;11.50;99.90
8231;DHT22;4156;50.908;6.974;2023-11-19T05:24:10;11.50;99.90
8231;DHT22;4156;50.908;6.974;2023-11-19T05:26:37;11.50;99.90
8231;DHT22;4156;50.908;6.974;2023-11-19T05:29:03;11.50;99.90
8231;DHT22;4156;50.908;6.974;2023-11-19T05:31:28;11.50;99.90
8231;DHT22;4156;50.908;6.974;2023-11-19T05:33:54;11.50;99.90
8231;DHT22;4156;50.908;6.974;2023-11-19T05:36:20;11.50;99.90
8231;DHT22;4156;50.908;6.974;2023-11-19T05:38:45;11.50;99.90
8231;DHT22;4156;50.908;6.974;2023-11-19T05:41:11;11.50;99.90
8231;DHT22;4156;50.908;6.974;2023-11-19T05:43:36;11.50;99.90
8231;DHT22;4156;50.908;6.974;2023-11-19T05:46:03;11.50;99.90
8231;DHT22;4156;50.908;6.974;2023-11-19T05:48:28;11.50;99.90
8231;DHT22;4156;50.908;6.974;2023-11-19T05:50:54;11.50;99.90
8231;DHT22;4156;50.908;6.974;2023-11-19T05:53:20;11.50;99.90
8231;DHT22;4156;50.908;6.974;2023-11-19T05:55:45;11.50;99.90
8231;DHT22;4156;50.908;6.974;2023-11-19T05:58:15;11.50;99.90
8231;DHT22;4156;50.908;6.974;2023-11-19T06:00:41;11.50;99.90
8231;DHT22;4156;50.908;6.974;2023-11-19T06:03:10;11.50;99.90
8231;DHT22;4156;50.908;6.974;2023-11-19T06:05:35;11.50;99.90
8231;DHT22;4156;50.908;6.974;2023-11-19T06:08:01;11.50;99.90
8231;DHT22;4156;50.908;6.974;2023-11-19T06:10:27;11.50;99.90
8231;DHT22;4156;50.908;6.974;2023-11-19T06:12:58;11.50;99.90
8231;DHT22;4156;50.908;6.974;2023-11-19T06:15:27;11.50;99.90
8231;DHT22;4156;50.908;6.974;2023-11-19T06:17:53;11.50;99.90
8231;DHT22;4156;50.908;6.974;2023-11-19T06:20:20;11.50;99.90
8231;DHT22;4156;50.908;6.974;2023-11-19T06:22:45;11.50;99.90
8231;DHT22;4156;50.908;6.974;2023-11-19T06:25:11;11.50;99.90
8231;DHT22;4156;50.908;6.974;2023-11-19T06:27:42;11.50;99.90
8231;DHT22;4156;50.908;6.974;2023-11-19T06:30:08;11.50;99.90
8231;DHT22;4156;50.908;6.974;2023-11-19T06:32:34;11.50;99.90
8231;DHT22;4156;50.908;6.974;2023-11-19T06:34:59;11.50;99.90
8231;DHT22;4156;50.908;6.974;2023-11-19T06:37:25;11.50;99.90
8231;DHT22;4156;50.908;6.974;2023-11-19T06:39:52;11.50;99.90
8231;DHT22;4156;50.908;6.974;2023-11-19T06:42:18;11.50;99.90
8231;DHT22;4156;50.908;6.974;2023-11-19T06:44:43;11.50;99.90
8231;DHT22;4156;50.908;6.974;2023-11-19T06:47:09;11.50;99.90
8231;DHT22;4156;50.908;6.974;2023-11-19T06:49:34;11.50;99.90
8231;DHT22;4156;50.908;6.974;2023-11-19T06:52:00;11.50;99.90
8231;DHT22;4156;50.908;6.974;2023-11-19T06:54:25;11.60;99.90
8231;DHT22;4156;50.908;6.974;2023-11-19T06:56:51;11.50;99.90
8231;DHT22;4156;50.908;6.974;2023-11-19T06:59:16;11.60;99.90
8231;DHT22;4156;50.908;6.974;2023-11-19T07:01:42;11.60;99.90
8231;DHT22;4156;50.908;6.974;2023-11-19T07:04:11;11.60;99.90
8231;DHT22;4156;50.908;6.974;2023-11-19T07:06:38;11.60;99.90
8231;DHT22;4156;50.908;6.974;2023-11-19T07:09:06;11.60;99.90
8231;DHT22;4156;50.908;6.974;2023-11-19T07:11:36;11.60;99.90
8231;DHT22;4156;50.908;6.974;2023-11-19T07:14:02;11.60;99.90
8231;DHT22;4156;50.908;6.974;2023-11-19T07:16:28;11.60;99.90
8231;DHT22;4156;50.908;6.974;2023-11-19T07:18:54;11.60;99.90
8231;DHT22;4156;50.908;6.974;2023-11-19T07:21:19;11.60;99.90
8231;DHT22;4156;50.908;6.974;2023-11-19T07:23:45;11.60;99.90
8231;DHT22;4156;50.908;6.974;2023-11-19T07:26:11;11.60;99.90
8231;DHT22;4156;50.908;6.974;2023-11-19T07:28:37;11.60;99.90
8231;DHT22;4156;50.908;6.974;2023-11-19T07:31:05;11.60;99.90
8231;DHT22;4156;50.908;6.974;2023-11-19T07:33:33;11.60;99.90
8231;DHT22;4156;50.908;6.974;2023-11-19T07:35:59;11.70;99.90
8231;DHT22;4156;50.908;6.974;2023-11-19T07:38:24;11.70;99.90
8231;DHT22;4156;50.908;6.974;2023-11-19T07:40:50;11.70;99.90
8231;DHT22;4156;50.908;6.974;2023-11-19T07:43:15;11.60;99.90
8231;DHT22;4156;50.908;6.974;2023-11-19T07:45:41;11.70;99.90
8231;DHT22;4156;50.908;6.974;2023-11-19T07:48:09;11.70;99.90
8231;DHT22;4156;50.908;6.974;2023-11-19T07:50:34;11.70;99.90
8231;DHT22;4156;50.908;6.974;2023-11-19T07:53:00;11.70;99.90
8231;DHT22;4156;50.908;6.974;2023-11-19T07:55:27;11.70;99.90
8231;DHT22;4156;50.908;6.974;2023-11-19T07:57:53;11.70;99.90
8231;DHT22;4156;50.908;6.974;2023-11-19T08:00:18;11.70;99.90
8231;DHT22;4156;50.908;6.974;2023-11-19T08:02:45;11.70;99.90
8231;DHT22;4156;50.908;6.974;2023-11-19T08:05:10;11.70;99.90
8231;DHT22;4156;50.908;6.974;2023-11-19T08:07:37;11.70;99.90
8231;DHT22;4156;50.908;6.974;2023-11-19T08:10:03;11.70;99.90
8231;DHT22;4156;50.908;6.974;2023-11-19T08:12:30;11.70;99.90
8231;DHT22;4156;50.908;6.974;2023-11-19T08:14:56;11.70;99.90
8231;DHT22;4156;50.908;6.974;2023-11-19T08:17:24;11.70;99.90
8231;DHT22;4156;50.908;6.974;2023-11-19T08:19:50;11.70;99.90
8231;DHT22;4156;50.908;6.974;2023-11-19T08:22:16;11.80;99.90
8231;DHT22;4156;50.908;6.974;2023-11-19T08:24:42;11.70;99.90
8231;DHT22;4156;50.908;6.974;2023-11-19T08:27:08;11.80;99.90
8231;DHT22;4156;50.908;6.974;2023-11-19T08:29:34;11.80;99.90
8231;DHT22;4156;50.908;6.974;2023-11-19T08:32:00;11.80;99.90
8231;DHT22;4156;50.908;6.974;2023-11-19T08:34:27;11.80;99.90
8231;DHT22;4156;50.908;6.974;2023-11-19T08:36:52;11.80;99.90
8231;DHT22;4156;50.908;6.974;2023-11-19T08:39:19;11.90;99.90
8231;DHT22;4156;50.908;6.974;2023-11-19T08:41:46;11.90;99.90
8231;DHT22;4156;50.908;6.974;2023-11-19T08:44:12;11.90;99.90
8231;DHT22;4156;50.908;6.974;2023-11-19T08:46:38;11.90;99.90
8231;DHT22;4156;50.908;6.974;2023-11-19T08:49:05;11.90;99.90
8231;DHT22;4156;50.908;6.974;2023-11-19T08:51:30;11.90;99.90
8231;DHT22;4156;50.908;6.974;2023-11-19T08:53:56;11.90;99.90
8231;DHT22;4156;50.908;6.974;2023-11-19T08:56:22;12.00;99.90
8231;DHT22;4156;50.908;6.974;2023-11-19T08:58:48;12.00;99.90
8231;DHT22;4156;50.908;6.974;2023-11-19T09:01:14;12.00;99.90
8231;DHT22;4156;50.908;6.974;2023-11-19T09:03:39;12.00;99.90
8231;DHT22;4156;50.908;6.974;2023-11-19T09:06:05;12.00;99.90
8231;DHT22;4156;50.908;6.974;2023-11-19T09:08:31;12.00;99.90
8231;DHT22;4156;50.908;6.974;2023-11-19T09:10:56;12.10;99.90
8231;DHT22;4156;50.908;6.974;2023-11-19T09:13:22;12.10;99.90
8231;DHT22;4156;50.908;6.974;2023-11-19T09:15:48;12.10;99.90
8231;DHT22;4156;50.908;6.974;2023-11-19T09:18:13;12.10;99.90
8231;DHT22;4156;50.908;6.974;2023-11-19T09:20:39;12.10;99.90
8231;DHT22;4156;50.908;6.974;2023-11-19T09:23:05;12.10;99.90
8231;DHT22;4156;50.908;6.974;2023-11-19T09:25:31;12.10;99.90
8231;DHT22;4156;50.908;6.974;2023-11-19T09:27:57;12.10;99.90
8231;DHT22;4156;50.908;6.974;2023-11-19T09:30:22;12.10;99.90
8231;DHT22;4156;50.908;6.974;2023-11-19T09:32:48;12.20;99.90
8231;DHT22;4156;50.908;6.974;2023-11-19T09:35:14;12.20;99.90
8231;DHT22;4156;50.908;6.974;2023-11-19T09:37:40;12.20;99.90
8231;DHT22;4156;50.908;6.974;2023-11-19T09:40:06;12.20;99.90
8231;DHT22;4156;50.908;6.974;2023-11-19T09:42:41;12.20;99.90
8231;DHT22;4156;50.908;6.974;2023-11-19T09:45:13;12.20;99.90
8231;DHT22;4156;50.908;6.974;2023-11-19T09:47:39;12.20;99.90
8231;DHT22;4156;50.908;6.974;2023-11-19T09:50:05;12.20;99.90
8231;DHT22;4156;50.908;6.974;2023-11-19T09:52:31;12.30;99.90
8231;DHT22;4156;50.908;6.974;2023-11-19T09:54:56;12.30;99.90
8231;DHT22;4156;50.908;6.974;2023-11-19T09:57:22;12.30;99.90
8231;DHT22;4156;50.908;6.974;2023-11-19T09:59:48;12.20;99.90
8231;DHT22;4156;50.908;6.974;2023-11-19T10:02:15;12.30;99.90
8231;DHT22;4156;50.908;6.974;2023-11-19T10:04:42;12.20;99.90
8231;DHT22;4156;50.908;6.974;2023-11-19T10:07:09;12.30;99.90
8231;DHT22;4156;50.908;6.974;2023-11-19T10:09:35;12.30;99.90
8231;DHT22;4156;50.908;6.974;2023-11-19T10:12:00;12.30;99.90
8231;DHT22;4156;50.908;6.974;2023-11-19T10:14:28;12.30;99.90
8231;DHT22;4156;50.908;6.974;2023-11-19T10:16:55;12.30;99.90
8231;DHT22;4156;50.908;6.974;2023-11-19T10:19:21;12.30;99.90
8231;DHT22;4156;50.908;6.974;2023-11-19T10:21:46;12.30;99.90
8231;DHT22;4156;50.908;6.974;2023-11-19T10:24:12;12.30;99.90
8231;DHT22;4156;50.908;6.974;2023-11-19T10:26:38;12.40;99.90
8231;DHT22;4156;50.908;6.974;2023-11-19T10:29:03;12.40;99.90
8231;DHT22;4156;50.908;6.974;2023-11-19T10:31:29;12.40;99.90
8231;DHT22;4156;50.908;6.974;2023-11-19T10:33:55;12.40;99.90
8231;DHT22;4156;50.908;6.974;2023-11-19T10:36:21;12.40;99.90
8231;DHT22;4156;50.908;6.974;2023-11-19T10:38:56;12.40;99.90
8231;DHT22;4156;50.908;6.974;2023-11-19T10:41:32;12.40;99.90
8231;DHT22;4156;50.908;6.974;2023-11-19T10:43:58;12.40;99.90
8231;DHT22;4156;50.908;6.974;2023-11-19T10:46:38;12.40;99.90
8231;DHT22;4156;50.908;6.974;2023-11-19T10:49:06;12.50;99.90
8231;DHT22;4156;50.908;6.974;2023-11-19T10:51:32;12.50;99.90
8231;DHT22;4156;50.908;6.974;2023-11-19T10:54:02;12.50;99.90
8231;DHT22;4156;50.908;6.974;2023-11-19T10:56:33;12.50;99.90
8231;DHT22;4156;50.908;6.974;2023-11-19T10:59:02;12.50;99.90
8231;DHT22;4156;50.908;6.974;2023-11-19T11:01:39;12.50;99.90
8231;DHT22;4156;50.908;6.974;2023-11-19T11:04:13;12.50;99.90
8231;DHT22;4156;50.908;6.974;2023-11-19T11:06:40;12.50;99.90
8231;DHT22;4156;50.908;6.974;2023-11-19T11:09:07;12.50;99.90
8231;DHT22;4156;50.908;6.974;2023-11-19T11:11:38;12.50;99.90
8231;DHT22;4156;50.908;6.974;2023-11-19T11:14:04;12.50;99.90
8231;DHT22;4156;50.908;6.974;2023-11-19T11:16:30;12.50;99.90
8231;DHT22;4156;50.908;6.974;2023-11-19T11:18:57;12.50;99.90
8231;DHT22;4156;50.908;6.974;2023-11-19T11:21:24;12.50;99.90
8231;DHT22;4156;50.908;6.974;2023-11-19T11:24:15;12.60;99.90
8231;DHT22;4156;50.908;6.974;2023-11-19T11:32:50;12.60;99.90
8231;DHT22;4156;50.908;6.974;2023-11-19T11:38:01;12.70;99.90
8231;DHT22;4156;50.908;6.974;2023-11-19T11:40:28;12.70;99.90
8231;DHT22;4156;50.908;6.974;2023-11-19T11:42:54;12.70;99.90
8231;DHT22;4156;50.908;6.974;2023-11-19T11:45:37;12.80;99.90
8231;DHT22;4156;50.908;6.974;2023-11-19T11:48:10;12.80;99.90
8231;DHT22;4156;50.908;6.974;2023-11-19T11:50:56;12.80;99.90
8231;DHT22;4156;50.908;6.974;2023-11-19T11:53:24;12.80;99.90
8231;DHT22;4156;50.908;6.974;2023-11-19T11:58:25;12.80;99.90
8231;DHT22;4156;50.908;6.974;2023-11-19T12:00:51;12.80;99.90
8231;DHT22;4156;50.908;6.974;2023-11-19T12:03:20;12.80;99.90
8231;DHT22;4156;50.908;6.974;2023-11-19T12:05:47;12.80;99.90
8231;DHT22;4156;50.908;6.974;2023-11-19T12:08:14;12.90;99.90
8231;DHT22;4156;50.908;6.974;2023-11-19T12:10:49;12.90;99.90
8231;DHT22;4156;50.908;6.974;2023-11-19T12:13:16;12.90;99.90
8231;DHT22;4156;50.908;6.974;2023-11-19T12:18:29;12.90;99.90
8231;DHT22;4156;50.908;6.974;2023-11-19T12:20:56;13.00;99.90
8231;DHT22;4156;50.908;6.974;2023-11-19T12:23:22;13.00;99.90
8231;DHT22;4156;50.908;6.974;2023-11-19T12:25:48;13.10;99.90
8231;DHT22;4156;50.908;6.974;2023-11-19T12:28:15;13.00;99.90
8231;DHT22;4156;50.908;6.974;2023-11-19T12:30:44;13.10;99.90
8231;DHT22;4156;50.908;6.974;2023-11-19T12:33:11;13.10;99.90
8231;DHT22;4156;50.908;6.974;2023-11-19T12:35:43;13.10;99.90
8231;DHT22;4156;50.908;6.974;2023-11-19T12:38:23;13.10;99.90
8231;DHT22;4156;50.908;6.974;2023-11-19T12:41:09;13.10;99.90
8231;DHT22;4156;50.908;6.974;2023-11-19T12:43:39;13.10;99.90
8231;DHT22;4156;50.908;6.974;2023-11-19T12:46:21;13.10;99.90
8231;DHT22;4156;50.908;6.974;2023-11-19T12:48:50;13.10;99.90
8231;DHT22;4156;50.908;6.974;2023-11-19T12:51:17;13.10;99.90
8231;DHT22;4156;50.908;6.974;2023-11-19T12:53:50;13.10;99.90
8231;DHT22;4156;50.908;6.974;2023-11-19T12:56:16;13.10;99.90
8231;DHT22;4156;50.908;6.974;2023-11-19T12:58:41;13.10;99.90
8231;DHT22;4156;50.908;6.974;2023-11-19T13:01:09;13.10;99.90
8231;DHT22;4156;50.908;6.974;2023-11-19T13:03:38;13.10;99.90
8231;DHT22;4156;50.908;6.974;2023-11-19T13:06:09;13.20;99.90
8231;DHT22;4156;50.908;6.974;2023-11-19T13:08:38;13.20;99.90
8231;DHT22;4156;50.908;6.974;2023-11-19T13:11:05;13.20;99.90
8231;DHT22;4156;50.908;6.974;2023-11-19T13:13:31;13.20;99.90
8231;DHT22;4156;50.908;6.974;2023-11-19T13:16:04;13.20;99.90
8231;DHT22;4156;50.908;6.974;2023-11-19T13:18:34;13.20;99.90
8231;DHT22;4156;50.908;6.974;2023-11-19T13:21:00;13.20;99.90
8231;DHT22;4156;50.908;6.974;2023-11-19T13:23:26;13.20;99.90
8231;DHT22;4156;50.908;6.974;2023-11-19T13:25:51;13.30;99.90
8231;DHT22;4156;50.908;6.974;2023-11-19T13:28:17;13.20;99.90
8231;DHT22;4156;50.908;6.974;2023-11-19T13:30:43;13.20;99.90
8231;DHT22;4156;50.908;6.974;2023-11-19T13:33:08;13.30;99.90
8231;DHT22;4156;50.908;6.974;2023-11-19T13:35:37;13.30;99.90
8231;DHT22;4156;50.908;6.974;2023-11-19T13:38:05;13.30;99.90
8231;DHT22;4156;50.908;6.974;2023-11-19T13:40:30;13.30;99.90
8231;DHT22;4156;50.908;6.974;2023-11-19T13:42:56;13.30;99.90
8231;DHT22;4156;50.908;6.974;2023-11-19T13:45:22;13.40;99.90
8231;DHT22;4156;50.908;6.974;2023-11-19T13:47:47;13.30;99.90
8231;DHT22;4156;50.908;6.974;2023-11-19T13:50:14;13.30;99.90
8231;DHT22;4156;50.908;6.974;2023-11-19T13:52:42;13.30;99.90
8231;DHT22;4156;50.908;6.974;2023-11-19T13:55:10;13.30;99.90
8231;DHT22;4156;50.908;6.974;2023-11-19T13:57:36;13.30;99.90
8231;DHT22;4156;50.908;6.974;2023-11-19T14:00:07;13.30;99.90
8231;DHT22;4156;50.908;6.974;2023-11-19T14:02:42;13.30;99.90
8231;DHT22;4156;50.908;6.974;2023-11-19T14:05:09;13.30;99.90
8231;DHT22;4156;50.908;6.974;2023-11-19T14:07:34;13.40;99.90
8231;DHT22;4156;50.908;6.974;2023-11-19T14:10:00;13.30;99.90
8231;DHT22;4156;50.908;6.974;2023-11-19T14:12:26;13.40;99.90
8231;DHT22;4156;50.908;6.974;2023-11-19T14:14:51;13.40;99.90
8231;DHT22;4156;50.908;6.974;2023-11-19T14:17:17;13.40;99.90
8231;DHT22;4156;50.908;6.974;2023-11-19T14:19:44;13.40;99.90
8231;DHT22;4156;50.908;6.974;2023-11-19T14:22:10;13.30;99.90
8231;DHT22;4156;50.908;6.974;2023-11-19T14:24:35;13.40;99.90
8231;DHT22;4156;50.908;6.974;2023-11-19T14:27:01;13.30;99.90
8231;DHT22;4156;50.908;6.974;2023-11-19T14:29:27;13.40;99.90
8231;DHT22;4156;50.908;6.974;2023-11-19T14:31:55;13.40;99.90
8231;DHT22;4156;50.908;6.974;2023-11-19T14:34:20;13.40;99.90
8231;DHT22;4156;50.908;6.974;2023-11-19T14:36:46;13.30;99.90
8231;DHT22;4156;50.908;6.974;2023-11-19T14:39:12;13.40;99.90
8231;DHT22;4156;50.908;6.974;2023-11-19T14:41:38;13.40;99.90
8231;DHT22;4156;50.908;6.974;2023-11-19T14:44:04;13.40;99.90
8231;DHT22;4156;50.908;6.974;2023-11-19T14:46:30;13.40;99.90
8231;DHT22;4156;50.908;6.974;2023-11-19T14:48:56;13.40;99.90
8231;DHT22;4156;50.908;6.974;2023-11-19T14:51:22;13.40;99.90
8231;DHT22;4156;50.908;6.974;2023-11-19T14:53:47;13.40;99.90
8231;DHT22;4156;50.908;6.974;2023-11-19T14:56:13;13.40;99.90
8231;DHT22;4156;50.908;6.974;2023-11-19T14:58:39;13.40;99.90
8231;DHT22;4156;50.908;6.974;2023-11-19T15:01:05;13.40;99.90
8231;DHT22;4156;50.908;6.974;2023-11-19T15:03:31;13.40;99.90
8231;DHT22;4156;50.908;6.974;2023-11-19T15:05:56;13.50;99.90
8231;DHT22;4156;50.908;6.974;2023-11-19T15:08:22;13.40;99.90
8231;DHT22;4156;50.908;6.974;2023-11-19T15:10:47;13.40;99.90
8231;DHT22;4156;50.908;6.974;2023-11-19T15:13:13;13.40;99.90
8231;DHT22;4156;50.908;6.974;2023-11-19T15:15:39;13.50;99.90
8231;DHT22;4156;50.908;6.974;2023-11-19T15:18:05;13.40;99.90
8231;DHT22;4156;50.908;6.974;2023-11-19T15:20:30;13.50;99.90
8231;DHT22;4156;50.908;6.974;2023-11-19T15:22:57;13.40;99.90
8231;DHT22;4156;50.908;6.974;2023-11-19T15:25:23;13.50;99.90
8231;DHT22;4156;50.908;6.974;2023-11-19T15:27:49;13.50;99.90
8231;DHT22;4156;50.908;6.974;2023-11-19T15:30:15;13.50;99.90
8231;DHT22;4156;50.908;6.974;2023-11-19T15:32:41;13.50;99.90
8231;DHT22;4156;50.908;6.974;2023-11-19T15:35:08;13.40;99.90
8231;DHT22;4156;50.908;6.974;2023-11-19T15:37:34;13.50;99.90
8231;DHT22;4156;50.908;6.974;2023-11-19T15:40:00;13.50;99.90
8231;DHT22;4156;50.908;6.974;2023-11-19T15:42:26;13.50;99.90
8231;DHT22;4156;50.908;6.974;2023-11-19T15:44:51;13.50;99.90
8231;DHT22;4156;50.908;6.974;2023-11-19T15:47:17;13.50;99.90
8231;DHT22;4156;50.908;6.974;2023-11-19T15:49:42;13.50;99.90
8231;DHT22;4156;50.908;6.974;2023-11-19T15:52:08;13.50;99.90
8231;DHT22;4156;50.908;6.974;2023-11-19T15:54:34;13.50;99.90
8231;DHT22;4156;50.908;6.974;2023-11-19T15:57:00;13.50;99.90
8231;DHT22;4156;50.908;6.974;2023-11-19T15:59:26;13.40;99.90
8231;DHT22;4156;50.908;6.974;2023-11-19T16:01:52;13.50;99.90
8231;DHT22;4156;50.908;6.974;2023-11-19T16:04:17;13.50;99.90
8231;DHT22;4156;50.908;6.974;2023-11-19T16:06:43;13.50;99.90
8231;DHT22;4156;50.908;6.974;2023-11-19T16:09:08;13.50;99.90
8231;DHT22;4156;50.908;6.974;2023-11-19T16:11:37;13.50;99.90
8231;DHT22;4156;50.908;6.974;2023-11-19T16:14:07;13.50;99.90
8231;DHT22;4156;50.908;6.974;2023-11-19T16:16:33;13.50;99.90